sensor_id;sensor_type;location;lat;lon;timestamp;pressure;altitude;pressure_sealevel;temperature;humidity
76358;BME280;65185;21.060;105.826;2024-02-15T00:01:11;101863.94;;;20.95;100.00
76358;BME280;65185;21.060;105.826;2024-02-15T00:03:37;101856.88;;;20.96;100.00
76358;BME280;65185;21.060;105.826;2024-02-15T00:06:03;101859.56;;;20.94;100.00
76358;BME280;65185;21.060;105.826;2024-02-15T00:08:30;101870.09;;;20.94;100.00
76358;BME280;65185;21.060;105.826;2024-02-15T00:10:56;101871.84;;;20.95;100.00
76358;BME280;65185;21.060;105.826;2024-02-15T00:13:22;101866.59;;;20.94;100.00
76358;BME280;65185;21.060;105.826;2024-02-15T00:15:49;101865.75;;;20.93;100.00
76358;BME280;65185;21.060;105.826;2024-02-15T00:18:16;101876.25;;;20.95;100.00
76358;BME280;65185;21.060;105.826;2024-02-15T00:20:42;101878.88;;;20.95;100.00
76358;BME280;65185;21.060;105.826;2024-02-15T00:23:09;101880.59;;;20.96;100.00
76358;BME280;65185;21.060;105.826;2024-02-15T00:25:36;101888.50;;;20.96;100.00
76358;BME280;65185;21.060;105.826;2024-02-15T00:28:03;101892.00;;;20.96;100.00
76358;BME280;65185;21.060;105.826;2024-02-15T00:30:29;101892.88;;;20.97;100.00
76358;BME280;65185;21.060;105.826;2024-02-15T00:32:57;101896.34;;;20.97;100.00
76358;BME280;65185;21.060;105.826;2024-02-15T00:35:23;101896.34;;;20.97;100.00
76358;BME280;65185;21.060;105.826;2024-02-15T00:37:50;101903.38;;;20.98;100.00
76358;BME280;65185;21.060;105.826;2024-02-15T00:40:17;101909.50;;;20.99;100.00
76358;BME280;65185;21.060;105.826;2024-02-15T00:42:43;101915.63;;;20.99;100.00
76358;BME280;65185;21.060;105.826;2024-02-15T00:45:09;101920.91;;;21.01;100.00
76358;BME280;65185;21.060;105.826;2024-02-15T00:47:39;101925.25;;;21.02;100.00
76358;BME280;65185;21.060;105.826;2024-02-15T00:50:08;101926.13;;;21.02;100.00
76358;BME280;65185;21.060;105.826;2024-02-15T00:52:35;101934.84;;;21.04;100.00
76358;BME280;65185;21.060;105.826;2024-02-15T00:55:02;101935.69;;;21.05;100.00
76358;BME280;65185;21.060;105.826;2024-02-15T00:57:28;101940.06;;;21.06;100.00
76358;BME280;65185;21.060;105.826;2024-02-15T00:59:54;101938.25;;;21.08;100.00
76358;BME280;65185;21.060;105.826;2024-02-15T01:02:21;101949.69;;;21.07;100.00
76358;BME280;65185;21.060;105.826;2024-02-15T01:04:47;101948.75;;;21.09;100.00
76358;BME280;65185;21.060;105.826;2024-02-15T01:07:13;101956.66;;;21.09;100.00
76358;BME280;65185;21.060;105.826;2024-02-15T01:09:40;101955.75;;;21.10;100.00
76358;BME280;65185;21.060;105.826;2024-02-15T01:12:06;101959.25;;;21.11;100.00
76358;BME280;65185;21.060;105.826;2024-02-15T01:14:33;101967.97;;;21.13;100.00
76358;BME280;65185;21.060;105.826;2024-02-15T01:17:00;101967.06;;;21.14;100.00
76358;BME280;65185;21.060;105.826;2024-02-15T01:19:26;101969.69;;;21.14;100.00
76358;BME280;65185;21.060;105.826;2024-02-15T01:21:53;101973.16;;;21.16;100.00
76358;BME280;65185;21.060;105.826;2024-02-15T01:24:19;101978.44;;;21.16;100.00
76358;BME280;65185;21.060;105.826;2024-02-15T01:26:46;101982.84;;;21.15;100.00
76358;BME280;65185;21.060;105.826;2024-02-15T01:29:13;101988.13;;;21.15;100.00
76358;BME280;65185;21.060;105.826;2024-02-15T01:31:40;101988.13;;;21.14;100.00
76358;BME280;65185;21.060;105.826;2024-02-15T01:34:06;101992.53;;;21.15;100.00
76358;BME280;65185;21.060;105.826;2024-02-15T01:36:32;101990.78;;;21.14;100.00
76358;BME280;65185;21.060;105.826;2024-02-15T01:38:59;101989.00;;;21.14;100.00
76358;BME280;65185;21.060;105.826;2024-02-15T01:41:25;102003.13;;;21.13;100.00
76358;BME280;65185;21.060;105.826;2024-02-15T01:43:51;102010.16;;;21.13;100.00
76358;BME280;65185;21.060;105.826;2024-02-15T01:46:19;102013.59;;;21.15;100.00
76358;BME280;65185;21.060;105.826;2024-02-15T01:48:47;102013.66;;;21.13;100.00
76358;BME280;65185;21.060;105.826;2024-02-15T01:51:14;102011.88;;;21.14;100.00
76358;BME280;65185;21.060;105.826;2024-02-15T01:53:44;102020.59;;;21.17;100.00
76358;BME280;65185;21.060;105.826;2024-02-15T01:56:13;102025.84;;;21.17;100.00
76358;BME280;65185;21.060;105.826;2024-02-15T01:58:42;102031.13;;;21.17;100.00
76358;BME280;65185;21.060;105.826;2024-02-15T02:01:09;102033.72;;;21.19;100.00
76358;BME280;65185;21.060;105.826;2024-02-15T02:03:35;102037.19;;;21.19;100.00
76358;BME280;65185;21.060;105.826;2024-02-15T02:06:02;102039.81;;;21.19;100.00
76358;BME280;65185;21.060;105.826;2024-02-15T02:08:29;102044.22;;;21.20;100.00
76358;BME280;65185;21.060;105.826;2024-02-15T02:10:55;102047.72;;;21.19;100.00
76358;BME280;65185;21.060;105.826;2024-02-15T02:13:21;102052.13;;;21.20;100.00
76358;BME280;65185;21.060;105.826;2024-02-15T02:15:48;102059.09;;;21.23;100.00
76358;BME280;65185;21.060;105.826;2024-02-15T02:18:14;102054.63;;;21.25;100.00
76358;BME280;65185;21.060;105.826;2024-02-15T02:20:40;102053.72;;;21.26;100.00
76358;BME280;65185;21.060;105.826;2024-02-15T02:23:13;102061.63;;;21.26;100.00
76358;BME280;65185;21.060;105.826;2024-02-15T02:25:41;102062.47;;;21.28;100.00
76358;BME280;65185;21.060;105.826;2024-02-15T02:28:10;102065.03;;;21.29;100.00
76358;BME280;65185;21.060;105.826;2024-02-15T02:30:37;102072.91;;;21.31;100.00
76358;BME280;65185;21.060;105.826;2024-02-15T02:33:10;102068.50;;;21.31;100.00
76358;BME280;65185;21.060;105.826;2024-02-15T02:35:37;102064.09;;;21.32;100.00
76358;BME280;65185;21.060;105.826;2024-02-15T02:38:03;102074.56;;;21.35;100.00
76358;BME280;65185;21.060;105.826;2024-02-15T02:40:30;102061.31;;;21.36;100.00
76358;BME280;65185;21.060;105.826;2024-02-15T02:42:56;102069.25;;;21.36;100.00
76358;BME280;65185;21.060;105.826;2024-02-15T02:45:25;102063.91;;;21.38;100.00
76358;BME280;65185;21.060;105.826;2024-02-15T02:47:52;102066.50;;;21.39;100.00
76358;BME280;65185;21.060;105.826;2024-02-15T02:50:19;102057.69;;;21.40;100.00
76358;BME280;65185;21.060;105.826;2024-02-15T02:52:46;102069.06;;;21.42;100.00
76358;BME280;65185;21.060;105.826;2024-02-15T02:55:14;102068.97;;;21.45;100.00
76358;BME280;65185;21.060;105.826;2024-02-15T02:57:41;102062.81;;;21.46;100.00
76358;BME280;65185;21.060;105.826;2024-02-15T03:00:11;102068.94;;;21.47;100.00
76358;BME280;65185;21.060;105.826;2024-02-15T03:02:46;102061.84;;;21.49;100.00
76358;BME280;65185;21.060;105.826;2024-02-15T03:05:13;102055.69;;;21.50;100.00
76358;BME280;65185;21.060;105.826;2024-02-15T03:07:40;102059.16;;;21.50;100.00
76358;BME280;65185;21.060;105.826;2024-02-15T03:10:08;102067.81;;;21.55;100.00
76358;BME280;65185;21.060;105.826;2024-02-15T03:12:37;102066.84;;;21.59;100.00
76358;BME280;65185;21.060;105.826;2024-02-15T03:15:06;102072.06;;;21.61;100.00
76358;BME280;65185;21.060;105.826;2024-02-15T03:17:43;102069.38;;;21.62;100.00
76358;BME280;65185;21.060;105.826;2024-02-15T03:20:11;102064.00;;;21.65;100.00
76358;BME280;65185;21.060;105.826;2024-02-15T03:25:17;102071.84;;;21.68;100.00
76358;BME280;65185;21.060;105.826;2024-02-15T03:27:43;102076.19;;;21.69;100.00
76358;BME280;65185;21.060;105.826;2024-02-15T03:30:10;102072.69;;;21.69;100.00
76358;BME280;65185;21.060;105.826;2024-02-15T03:32:36;102065.63;;;21.69;100.00
76358;BME280;65185;21.060;105.826;2024-02-15T03:35:03;102065.59;;;21.71;100.00
76358;BME280;65185;21.060;105.826;2024-02-15T03:37:29;102068.19;;;21.72;100.00
76358;BME280;65185;21.060;105.826;2024-02-15T03:39:56;102067.38;;;21.70;100.00
76358;BME280;65185;21.060;105.826;2024-02-15T03:42:22;102064.75;;;21.70;100.00
76358;BME280;65185;21.060;105.826;2024-02-15T03:44:49;102060.31;;;21.71;100.00
76358;BME280;65185;21.060;105.826;2024-02-15T03:47:16;102057.63;;;21.72;100.00
76358;BME280;65185;21.060;105.826;2024-02-15T03:49:42;102062.88;;;21.74;100.00
76358;BME280;65185;21.060;105.826;2024-02-15T03:52:09;102070.75;;;21.75;100.00
76358;BME280;65185;21.060;105.826;2024-02-15T03:54:36;102062.78;;;21.77;100.00
76358;BME280;65185;21.060;105.826;2024-02-15T03:57:03;102068.06;;;21.77;100.00
76358;BME280;65185;21.060;105.826;2024-02-15T03:59:29;102075.09;;;21.76;100.00
76358;BME280;65185;21.060;105.826;2024-02-15T04:01:58;102062.00;;;21.73;100.00
76358;BME280;65185;21.060;105.826;2024-02-15T04:04:24;102060.19;;;21.75;100.00
76358;BME280;65185;21.060;105.826;2024-02-15T04:06:51;102057.59;;;21.74;100.00
76358;BME280;65185;21.060;105.826;2024-02-15T04:09:18;102039.16;;;21.72;100.00
76358;BME280;65185;21.060;105.826;2024-02-15T04:11:47;102048.00;;;21.71;100.00
76358;BME280;65185;21.060;105.826;2024-02-15T04:14:19;102048.91;;;21.70;100.00
76358;BME280;65185;21.060;105.826;2024-02-15T04:16:45;102033.94;;;21.71;100.00
76358;BME280;65185;21.060;105.826;2024-02-15T04:19:11;102032.22;;;21.70;100.00
76358;BME280;65185;21.060;105.826;2024-02-15T04:21:38;102027.75;;;21.72;100.00
76358;BME280;65185;21.060;105.826;2024-02-15T04:24:06;102025.13;;;21.72;100.00
76358;BME280;65185;21.060;105.826;2024-02-15T04:26:32;102022.13;;;21.84;100.00
76358;BME280;65185;21.060;105.826;2024-02-15T04:28:59;102019.25;;;21.92;100.00
76358;BME280;65185;21.060;105.826;2024-02-15T04:31:25;102013.69;;;22.01;100.00
76358;BME280;65185;21.060;105.826;2024-02-15T04:33:55;102024.06;;;22.07;100.00
76358;BME280;65185;21.060;105.826;2024-02-15T04:36:22;102009.34;;;22.00;100.00
76358;BME280;65185;21.060;105.826;2024-02-15T04:38:52;102007.06;;;21.88;100.00
76358;BME280;65185;21.060;105.826;2024-02-15T04:41:19;102012.56;;;21.80;100.00
76358;BME280;65185;21.060;105.826;2024-02-15T04:43:47;102004.78;;;21.75;100.00
76358;BME280;65185;21.060;105.826;2024-02-15T04:46:13;102006.66;;;21.72;100.00
76358;BME280;65185;21.060;105.826;2024-02-15T04:48:41;101998.81;;;21.69;100.00
76358;BME280;65185;21.060;105.826;2024-02-15T04:51:10;101990.91;;;21.69;100.00
76358;BME280;65185;21.060;105.826;2024-02-15T04:53:37;101998.81;;;21.69;100.00
76358;BME280;65185;21.060;105.826;2024-02-15T04:56:05;101998.91;;;21.66;100.00
76358;BME280;65185;21.060;105.826;2024-02-15T04:58:42;101998.09;;;21.64;100.00
76358;BME280;65185;21.060;105.826;2024-02-15T05:01:15;101999.84;;;21.63;100.00
76358;BME280;65185;21.060;105.826;2024-02-15T05:03:43;101999.97;;;21.60;100.00
76358;BME280;65185;21.060;105.826;2024-02-15T05:06:09;102007.00;;;21.60;100.00
76358;BME280;65185;21.060;105.826;2024-02-15T05:08:40;101994.75;;;21.59;100.00
76358;BME280;65185;21.060;105.826;2024-02-15T05:11:13;101993.03;;;21.56;100.00
76358;BME280;65185;21.060;105.826;2024-02-15T05:13:48;101988.75;;;21.54;100.00
76358;BME280;65185;21.060;105.826;2024-02-15T05:16:17;101984.41;;;21.51;100.00
76358;BME280;65185;21.060;105.826;2024-02-15T05:18:43;101978.25;;;21.51;100.00
76358;BME280;65185;21.060;105.826;2024-02-15T05:21:11;101983.53;;;21.51;100.00
76358;BME280;65185;21.060;105.826;2024-02-15T05:23:39;101975.63;;;21.51;100.00
76358;BME280;65185;21.060;105.826;2024-02-15T05:26:06;101972.94;;;21.52;100.00
76358;BME280;65185;21.060;105.826;2024-02-15T05:28:33;101972.06;;;21.53;100.00
76358;BME280;65185;21.060;105.826;2024-02-15T05:31:13;101962.38;;;21.54;100.00
76358;BME280;65185;21.060;105.826;2024-02-15T05:33:43;101965.94;;;21.51;100.00
76358;BME280;65185;21.060;105.826;2024-02-15T05:36:20;101962.44;;;21.51;100.00
76358;BME280;65185;21.060;105.826;2024-02-15T05:38:53;101957.16;;;21.51;100.00
76358;BME280;65185;21.060;105.826;2024-02-15T05:41:20;101948.38;;;21.52;100.00
76358;BME280;65185;21.060;105.826;2024-02-15T05:43:47;101948.31;;;21.53;100.00
76358;BME280;65185;21.060;105.826;2024-02-15T05:46:14;101939.47;;;21.54;100.00
76358;BME280;65185;21.060;105.826;2024-02-15T05:48:40;101935.19;;;21.50;100.00
76358;BME280;65185;21.060;105.826;2024-02-15T05:51:08;101931.63;;;21.53;100.00
76358;BME280;65185;21.060;105.826;2024-02-15T05:53:35;101928.03;;;21.55;100.00
76358;BME280;65185;21.060;105.826;2024-02-15T05:56:08;101918.31;;;21.57;100.00
76358;BME280;65185;21.060;105.826;2024-02-15T05:58:36;101912.91;;;21.60;100.00
76358;BME280;65185;21.060;105.826;2024-02-15T06:01:03;101910.16;;;21.65;100.00
76358;BME280;65185;21.060;105.826;2024-02-15T06:03:37;101898.78;;;21.63;100.00
76358;BME280;65185;21.060;105.826;2024-02-15T06:06:06;101897.75;;;21.67;100.00
76358;BME280;65185;21.060;105.826;2024-02-15T06:08:36;101896.75;;;21.71;100.00
76358;BME280;65185;21.060;105.826;2024-02-15T06:11:02;101886.13;;;21.74;100.00
76358;BME280;65185;21.060;105.826;2024-02-15T06:13:30;101883.28;;;21.80;100.00
76358;BME280;65185;21.060;105.826;2024-02-15T06:15:57;101876.31;;;21.79;100.00
76358;BME280;65185;21.060;105.826;2024-02-15T06:18:27;101867.38;;;21.83;100.00
76358;BME280;65185;21.060;105.826;2024-02-15T06:20:59;101869.03;;;21.86;100.00
76358;BME280;65185;21.060;105.826;2024-02-15T06:23:26;101868.09;;;21.88;100.00
76358;BME280;65185;21.060;105.826;2024-02-15T06:25:55;101855.69;;;21.90;100.00
76358;BME280;65185;21.060;105.826;2024-02-15T06:28:26;101854.72;;;21.93;100.00
76358;BME280;65185;21.060;105.826;2024-02-15T06:31:22;101859.97;;;21.94;100.00
76358;BME280;65185;21.060;105.826;2024-02-15T06:34:06;101852.88;;;21.96;100.00
76358;BME280;65185;21.060;105.826;2024-02-15T06:36:53;101848.38;;;21.98;100.00
76358;BME280;65185;21.060;105.826;2024-02-15T06:39:38;101848.28;;;22.01;100.00
76358;BME280;65185;21.060;105.826;2024-02-15T06:42:12;101842.94;;;22.03;100.00
76358;BME280;65185;21.060;105.826;2024-02-15T06:44:42;101845.47;;;22.06;100.00
76358;BME280;65185;21.060;105.826;2024-02-15T06:47:09;101845.44;;;22.07;100.00
76358;BME280;65185;21.060;105.826;2024-02-15T06:49:40;101836.47;;;22.11;100.00
76358;BME280;65185;21.060;105.826;2024-02-15T06:52:07;101839.13;;;22.11;100.00
76358;BME280;65185;21.060;105.826;2024-02-15T06:54:34;101838.16;;;22.14;100.00
76358;BME280;65185;21.060;105.826;2024-02-15T06:57:04;101838.16;;;22.14;100.00
76358;BME280;65185;21.060;105.826;2024-02-15T06:59:32;101832.81;;;22.15;100.00
76358;BME280;65185;21.060;105.826;2024-02-15T07:01:59;101828.47;;;22.14;100.00
76358;BME280;65185;21.060;105.826;2024-02-15T07:04:25;101830.19;;;22.15;100.00
76358;BME280;65185;21.060;105.826;2024-02-15T07:06:52;101823.13;;;22.16;100.00
76358;BME280;65185;21.060;105.826;2024-02-15T07:09:20;101831.94;;;22.16;100.00
76358;BME280;65185;21.060;105.826;2024-02-15T07:11:53;101828.41;;;22.16;100.00
76358;BME280;65185;21.060;105.826;2024-02-15T07:14:19;101830.19;;;22.15;100.00
76358;BME280;65185;21.060;105.826;2024-02-15T07:16:46;101823.25;;;22.13;100.00
76358;BME280;65185;21.060;105.826;2024-02-15T07:19:13;101813.59;;;22.12;100.00
76358;BME280;65185;21.060;105.826;2024-02-15T07:21:41;101815.38;;;22.11;100.00
76358;BME280;65185;21.060;105.826;2024-02-15T07:24:08;101816.19;;;22.13;100.00
76358;BME280;65185;21.060;105.826;2024-02-15T07:26:35;101815.34;;;22.13;100.00
76358;BME280;65185;21.060;105.826;2024-02-15T07:29:02;101812.69;;;22.13;100.00
76358;BME280;65185;21.060;105.826;2024-02-15T07:31:32;101813.44;;;22.16;100.00
76358;BME280;65185;21.060;105.826;2024-02-15T07:34:01;101808.84;;;22.21;100.00
76358;BME280;65185;21.060;105.826;2024-02-15T07:36:29;101812.31;;;22.23;100.00
76358;BME280;65185;21.060;105.826;2024-02-15T07:38:55;101810.53;;;22.24;100.00
76358;BME280;65185;21.060;105.826;2024-02-15T07:41:26;101812.31;;;22.23;100.00
76358;BME280;65185;21.060;105.826;2024-02-15T07:43:54;101818.50;;;22.22;100.00
76358;BME280;65185;21.060;105.826;2024-02-15T07:46:21;101809.72;;;22.22;100.00
76358;BME280;65185;21.060;105.826;2024-02-15T07:48:48;101803.56;;;22.21;100.00
76358;BME280;65185;21.060;105.826;2024-02-15T07:51:19;101806.09;;;22.24;100.00
76358;BME280;65185;21.060;105.826;2024-02-15T07:53:46;101800.88;;;22.23;100.00
76358;BME280;65185;21.060;105.826;2024-02-15T07:56:14;101809.66;;;22.23;100.00
76358;BME280;65185;21.060;105.826;2024-02-15T07:58:42;101801.75;;;22.23;100.00
76358;BME280;65185;21.060;105.826;2024-02-15T08:01:11;101802.63;;;22.24;100.00
76358;BME280;65185;21.060;105.826;2024-02-15T08:03:37;101799.13;;;22.23;100.00
76358;BME280;65185;21.060;105.826;2024-02-15T08:06:08;101795.53;;;22.24;100.00
76358;BME280;65185;21.060;105.826;2024-02-15T08:08:35;101797.38;;;22.22;100.00
76358;BME280;65185;21.060;105.826;2024-02-15T08:11:02;101797.38;;;22.22;100.00
76358;BME280;65185;21.060;105.826;2024-02-15T08:13:29;101789.41;;;22.24;100.00
76358;BME280;65185;21.060;105.826;2024-02-15T08:15:56;101796.63;;;22.19;100.00
76358;BME280;65185;21.060;105.826;2024-02-15T08:18:22;101795.88;;;22.15;100.00
76358;BME280;65185;21.060;105.826;2024-02-15T08:20:48;101795.13;;;22.12;100.00
76358;BME280;65185;21.060;105.826;2024-02-15T08:23:15;101790.84;;;22.08;100.00
76358;BME280;65185;21.060;105.826;2024-02-15T08:25:41;101797.75;;;22.12;100.00
76358;BME280;65185;21.060;105.826;2024-02-15T08:28:08;101796.94;;;22.10;100.00
76358;BME280;65185;21.060;105.826;2024-02-15T08:30:34;101804.94;;;22.08;100.00
76358;BME280;65185;21.060;105.826;2024-02-15T08:33:03;101803.22;;;22.07;100.00
76358;BME280;65185;21.060;105.826;2024-02-15T08:35:29;101807.63;;;22.07;100.00
76358;BME280;65185;21.060;105.826;2024-02-15T08:37:56;101804.09;;;22.06;100.00
76358;BME280;65185;21.060;105.826;2024-02-15T08:40:22;101804.97;;;22.07;100.00
76358;BME280;65185;21.060;105.826;2024-02-15T08:42:51;101811.91;;;22.09;100.00
76358;BME280;65185;21.060;105.826;2024-02-15T08:45:17;101804.94;;;22.08;100.00
76358;BME280;65185;21.060;105.826;2024-02-15T08:47:43;101805.78;;;22.09;100.00
76358;BME280;65185;21.060;105.826;2024-02-15T08:50:11;101803.16;;;22.09;100.00
76358;BME280;65185;21.060;105.826;2024-02-15T08:52:39;101803.09;;;22.10;100.00
76358;BME280;65185;21.060;105.826;2024-02-15T08:55:10;101803.09;;;22.10;100.00
76358;BME280;65185;21.060;105.826;2024-02-15T08:57:40;101809.25;;;22.11;100.00
76358;BME280;65185;21.060;105.826;2024-02-15T09:00:07;101799.53;;;22.11;100.00
76358;BME280;65185;21.060;105.826;2024-02-15T09:02:48;101800.28;;;22.15;100.00
76358;BME280;65185;21.060;105.826;2024-02-15T09:05:15;101801.97;;;22.17;100.00
76358;BME280;65185;21.060;105.826;2024-02-15T09:07:42;101798.38;;;22.20;100.00
76358;BME280;65185;21.060;105.826;2024-02-15T09:10:12;101797.50;;;22.19;100.00
76358;BME280;65185;21.060;105.826;2024-02-15T09:12:40;101791.25;;;22.22;100.00
76358;BME280;65185;21.060;105.826;2024-02-15T09:15:08;101807.03;;;22.23;100.00
76358;BME280;65185;21.060;105.826;2024-02-15T09:17:35;101802.56;;;22.25;100.00
76358;BME280;65185;21.060;105.826;2024-02-15T09:20:11;101801.56;;;22.28;100.00
76358;BME280;65185;21.060;105.826;2024-02-15T09:22:50;101791.88;;;22.28;100.00
76358;BME280;65185;21.060;105.826;2024-02-15T09:25:18;101792.75;;;22.29;100.00
76358;BME280;65185;21.060;105.826;2024-02-15T09:27:44;101793.63;;;22.29;100.00
76358;BME280;65185;21.060;105.826;2024-02-15T09:30:13;101800.59;;;22.30;100.00
76358;BME280;65185;21.060;105.826;2024-02-15T09:32:41;101805.88;;;22.30;100.00
76358;BME280;65185;21.060;105.826;2024-02-15T09:35:09;101795.38;;;22.29;100.00
76358;BME280;65185;21.060;105.826;2024-02-15T09:37:36;101800.53;;;22.32;100.00
76358;BME280;65185;21.060;105.826;2024-02-15T09:40:10;101801.34;;;22.34;100.00
76358;BME280;65185;21.060;105.826;2024-02-15T09:42:38;101798.78;;;22.32;100.00
76358;BME280;65185;21.060;105.826;2024-02-15T09:45:09;101805.78;;;22.33;100.00
76358;BME280;65185;21.060;105.826;2024-02-15T09:47:46;101797.84;;;22.33;100.00
76358;BME280;65185;21.060;105.826;2024-02-15T09:50:17;101799.66;;;22.33;100.00
76358;BME280;65185;21.060;105.826;2024-02-15T09:52:50;101804.06;;;22.32;100.00
76358;BME280;65185;21.060;105.826;2024-02-15T09:55:23;101808.47;;;22.32;100.00
76358;BME280;65185;21.060;105.826;2024-02-15T09:57:50;101803.25;;;22.30;100.00
76358;BME280;65185;21.060;105.826;2024-02-15T10:00:17;101804.19;;;22.29;100.00
76358;BME280;65185;21.060;105.826;2024-02-15T10:02:44;101805.88;;;22.30;100.00
76358;BME280;65185;21.060;105.826;2024-02-15T10:05:11;101809.47;;;22.29;100.00
76358;BME280;65185;21.060;105.826;2024-02-15T10:07:42;101804.22;;;22.28;100.00
76358;BME280;65185;21.060;105.826;2024-02-15T10:10:21;101817.41;;;22.28;100.00
76358;BME280;65185;21.060;105.826;2024-02-15T10:12:48;101815.69;;;22.27;100.00
76358;BME280;65185;21.060;105.826;2024-02-15T10:15:36;101819.25;;;22.26;100.00
76358;BME280;65185;21.060;105.826;2024-02-15T10:18:04;101821.03;;;22.25;100.00
76358;BME280;65185;21.060;105.826;2024-02-15T10:20:33;101824.53;;;22.26;100.00
76358;BME280;65185;21.060;105.826;2024-02-15T10:23:10;101827.13;;;22.27;100.00
76358;BME280;65185;21.060;105.826;2024-02-15T10:25:37;101834.13;;;22.28;100.00
76358;BME280;65185;21.060;105.826;2024-02-15T10:28:05;101838.19;;;22.38;100.00
76358;BME280;65185;21.060;105.826;2024-02-15T10:30:36;101836.91;;;22.48;100.00
76358;BME280;65185;21.060;105.826;2024-02-15T10:33:04;101842.47;;;22.41;100.00
76358;BME280;65185;21.060;105.826;2024-02-15T10:35:31;101847.94;;;22.36;100.00
76358;BME280;65185;21.060;105.826;2024-02-15T10:38:10;101851.72;;;22.29;100.00
76358;BME280;65185;21.060;105.826;2024-02-15T10:40:40;101853.81;;;22.20;100.00
76358;BME280;65185;21.060;105.826;2024-02-15T10:43:09;101859.13;;;22.18;100.00
76358;BME280;65185;21.060;105.826;2024-02-15T10:45:39;101868.97;;;22.13;100.00
76358;BME280;65185;21.060;105.826;2024-02-15T10:48:10;101871.72;;;22.10;100.00
76358;BME280;65185;21.060;105.826;2024-02-15T10:50:39;101867.41;;;22.08;100.00
76358;BME280;65185;21.060;105.826;2024-02-15T10:53:22;101870.97;;;22.07;100.00
76358;BME280;65185;21.060;105.826;2024-02-15T10:58:33;101881.53;;;22.07;100.00
76358;BME280;65185;21.060;105.826;2024-02-15T11:01:06;101876.19;;;22.08;100.00
76358;BME280;65185;21.060;105.826;2024-02-15T11:03:46;101880.53;;;22.11;100.00
76358;BME280;65185;21.060;105.826;2024-02-15T11:06:16;101876.00;;;22.14;100.00
76358;BME280;65185;21.060;105.826;2024-02-15T11:08:43;101883.91;;;22.14;100.00
76358;BME280;65185;21.060;105.826;2024-02-15T11:11:10;101880.25;;;22.18;100.00
76358;BME280;65185;21.060;105.826;2024-02-15T11:13:40;101878.41;;;22.20;100.00
76358;BME280;65185;21.060;105.826;2024-02-15T11:16:08;101878.31;;;22.23;100.00
76358;BME280;65185;21.060;105.826;2024-02-15T11:18:49;101884.47;;;22.24;100.00
76358;BME280;65185;21.060;105.826;2024-02-15T11:21:18;101894.16;;;22.23;100.00
76358;BME280;65185;21.060;105.826;2024-02-15T11:23:44;101889.03;;;22.19;100.00
76358;BME280;65185;21.060;105.826;2024-02-15T11:26:43;101897.00;;;22.17;100.00
76358;BME280;65185;21.060;105.826;2024-02-15T11:32:47;101895.19;;;22.19;100.00
76358;BME280;65185;21.060;105.826;2024-02-15T11:35:16;101892.59;;;22.18;100.00
76358;BME280;65185;21.060;105.826;2024-02-15T11:37:50;101907.56;;;22.17;100.00
76358;BME280;65185;21.060;105.826;2024-02-15T11:40:20;101905.03;;;22.14;100.00
76358;BME280;65185;21.060;105.826;2024-02-15T11:42:52;101910.31;;;22.14;100.00
76358;BME280;65185;21.060;105.826;2024-02-15T11:45:19;101913.78;;;22.15;100.00
76358;BME280;65185;21.060;105.826;2024-02-15T11:47:50;101914.66;;;22.15;100.00
76358;BME280;65185;21.060;105.826;2024-02-15T11:50:21;101919.06;;;22.15;100.00
76358;BME280;65185;21.060;105.826;2024-02-15T11:52:49;101911.16;;;22.15;100.00
76358;BME280;65185;21.060;105.826;2024-02-15T11:55:20;101919.94;;;22.15;100.00
76358;BME280;65185;21.060;105.826;2024-02-15T11:57:59;101927.88;;;22.15;100.00
76358;BME280;65185;21.060;105.826;2024-02-15T12:00:31;101934.88;;;22.16;100.00
76358;BME280;65185;21.060;105.826;2024-02-15T12:03:21;101942.81;;;22.16;100.00
76358;BME280;65185;21.060;105.826;2024-02-15T12:06:06;101945.44;;;22.16;100.00
76358;BME280;65185;21.060;105.826;2024-02-15T12:08:52;101952.56;;;22.14;100.00
76358;BME280;65185;21.060;105.826;2024-02-15T12:11:38;101951.69;;;22.14;100.00
76358;BME280;65185;21.060;105.826;2024-02-15T12:14:23;101949.03;;;22.14;100.00
76358;BME280;65185;21.060;105.826;2024-02-15T12:17:09;101940.25;;;22.13;100.00
76358;BME280;65185;21.060;105.826;2024-02-15T12:19:55;101948.22;;;22.12;100.00
76358;BME280;65185;21.060;105.826;2024-02-15T12:22:31;101949.16;;;22.11;100.00
76358;BME280;65185;21.060;105.826;2024-02-15T12:24:59;101953.63;;;22.09;100.00
76358;BME280;65185;21.060;105.826;2024-02-15T12:27:26;101958.03;;;22.08;100.00
76358;BME280;65185;21.060;105.826;2024-02-15T12:29:57;101962.34;;;22.11;100.00
76358;BME280;65185;21.060;105.826;2024-02-15T12:32:25;101966.75;;;22.10;100.00
76358;BME280;65185;21.060;105.826;2024-02-15T12:34:52;101969.47;;;22.09;100.00
76358;BME280;65185;21.060;105.826;2024-02-15T12:37:21;101968.63;;;22.07;100.00
76358;BME280;65185;21.060;105.826;2024-02-15T12:39:49;101966.91;;;22.06;100.00